Time;durP1;ratioP1;P1;durP2;ratioP2;P2;SDS_P1;SDS_P2;PMS_P1;PMS_P2;Temp;Humidity;BMP_temperature;BMP_pressure;BME280_temperature;BME280_humidity;BME280_pressure;Samples;Min_cycle;Max_cycle;Signal;HPM_P1;HPM_P2
2021/08/05 07:52:06;;;;;;;11.50;7.78;;;21.00;99.90;;;;;;14965146;22;1347703;-58
2021/08/05 07:57:53;;;;;;;11.52;7.72;;;21.00;99.90;;;;;;14735232;22;20155;-58
2021/08/05 08:03:40;;;;;;;13.25;7.82;;;21.00;99.90;;;;;;14731986;23;20028;-58
2021/08/05 08:09:28;;;;;;;11.75;7.30;;;20.90;99.90;;;;;;14656322;23;20020;-58
2021/08/05 08:15:22;;;;;;;12.68;7.85;;;20.70;99.90;;;;;;14715460;23;20025;-58
2021/08/05 08:21:09;;;;;;;12.50;7.78;;;20.60;99.90;;;;;;14738292;23;20469;-58
2021/08/05 08:26:57;;;;;;;11.30;7.25;;;20.90;99.90;;;;;;14701997;23;20398;-60
2021/08/05 08:32:47;;;;;;;12.32;7.30;;;21.10;99.90;;;;;;14732946;23;20031;-59
2021/08/05 08:38:34;;;;;;;11.38;7.50;;;21.20;99.90;;;;;;14759686;23;20080;-59
2021/08/05 08:44:22;;;;;;;15.18;7.45;;;21.10;99.90;;;;;;14714499;23;20103;-59
2021/08/05 08:50:10;;;;;;;10.68;7.35;;;21.20;99.90;;;;;;14747784;23;20049;-59
2021/08/05 08:55:58;;;;;;;9.43;7.40;;;21.20;99.90;;;;;;14697947;23;20476;-60
2021/08/05 09:01:46;;;;;;;13.50;7.75;;;21.40;99.90;;;;;;14714545;23;20093;-60
2021/08/05 09:07:34;;;;;;;14.23;7.53;;;21.40;99.90;;;;;;14713382;23;20053;-60
2021/08/05 09:13:21;;;;;;;10.52;5.97;;;21.40;99.90;;;;;;14713666;23;20483;-58
2021/08/05 09:19:10;;;;;;;8.80;5.57;;;21.20;99.90;;;;;;14750905;22;20475;-60
2021/08/05 09:24:57;;;;;;;12.20;6.03;;;21.40;99.90;;;;;;14714199;23;20096;-60
2021/08/05 09:30:45;;;;;;;8.20;5.50;;;21.40;99.90;;;;;;14751308;23;20029;-60
2021/08/05 09:36:34;;;;;;;5.40;3.75;;;21.70;99.90;;;;;;14722884;23;20030;-60
2021/08/05 09:42:21;;;;;;;4.28;3.13;;;22.00;99.90;;;;;;14747356;23;20470;-60
2021/08/05 09:48:08;;;;;;;5.85;3.45;;;22.20;99.90;;;;;;14744761;23;20362;-58
2021/08/05 09:54:02;;;;;;;5.22;3.30;;;22.10;99.90;;;;;;14688051;23;20031;-60
2021/08/05 09:59:54;;;;;;;8.90;3.67;;;22.00;99.90;;;;;;14715794;23;20035;-60
2021/08/05 10:05:56;;;;;;;4.38;3.33;;;22.20;99.90;;;;;;14719138;23;20367;-59
2021/08/05 10:11:46;;;;;;;4.90;3.20;;;22.20;99.90;;;;;;14723184;23;20052;-60
2021/08/05 10:17:33;;;;;;;4.28;3.00;;;22.30;99.90;;;;;;14681832;23;20382;-60
2021/08/05 10:23:20;;;;;;;4.10;3.15;;;22.40;99.90;;;;;;14681947;23;20029;-61
2021/08/05 10:29:09;;;;;;;6.45;2.97;;;22.50;99.90;;;;;;14683699;23;20505;-61
2021/08/05 10:34:56;;;;;;;5.85;3.38;;;22.50;99.90;;;;;;14702578;23;20024;-60
2021/08/05 10:40:44;;;;;;;4.20;2.83;;;22.50;99.90;;;;;;14699196;23;20017;-60
2021/08/05 10:46:34;;;;;;;5.25;3.25;;;22.50;99.90;;;;;;14684741;23;20031;-60
2021/08/05 10:52:44;;;;;;;11.25;3.13;;;22.80;99.70;;;;;;14695958;23;20021;-60
2021/08/05 10:58:34;;;;;;;6.53;3.08;;;23.10;99.10;;;;;;14692273;23;20079;-60
2021/08/05 11:04:46;;;;;;;5.78;2.70;;;23.60;98.30;;;;;;14694675;23;20079;-60
2021/08/05 11:10:33;;;;;;;2.63;2.40;;;24.00;95.70;;;;;;14753468;23;20056;-60
2021/08/05 11:17:01;;;;;;;7.95;2.53;;;24.10;94.60;;;;;;14706474;23;20131;-60
2021/08/05 11:22:54;;;;;;;5.80;2.67;;;23.70;95.90;;;;;;14748434;22;20045;-60
2021/08/05 11:28:46;;;;;;;3.25;2.38;;;23.60;96.80;;;;;;14711611;23;20104;-60
2021/08/05 11:34:54;;;;;;;5.28;2.38;;;23.70;96.30;;;;;;14711223;22;20081;-61
2021/08/05 11:40:45;;;;;;;4.40;2.50;;;24.20;96.90;;;;;;14711664;22;20033;-59
2021/08/05 11:46:33;;;;;;;4.03;2.40;;;24.40;95.60;;;;;;14710996;23;20096;-59
2021/08/05 11:52:21;;;;;;;3.13;2.28;;;24.30;96.10;;;;;;14695185;23;20076;-59
2021/08/05 11:58:09;;;;;;;6.05;2.50;;;24.10;95.50;;;;;;14668363;23;20055;-58
2021/08/05 12:04:03;;;;;;;2.95;1.98;;;24.20;96.10;;;;;;14683306;23;20338;-59
2021/08/05 12:10:02;;;;;;;6.90;2.70;;;24.30;94.90;;;;;;14716463;23;20485;-58
2021/08/05 12:15:53;;;;;;;5.22;2.38;;;24.20;95.90;;;;;;14699603;23;20045;-57
2021/08/05 12:21:47;;;;;;;2.60;2.08;;;24.20;96.40;;;;;;14715595;23;20077;-58
2021/08/05 12:27:34;;;;;;;6.20;2.25;;;24.20;96.60;;;;;;14715359;23;20100;-61
2021/08/05 12:33:25;;;;;;;2.28;2.00;;;24.40;96.30;;;;;;14714874;23;20040;-58
2021/08/05 12:39:11;;;;;;;3.75;2.13;;;24.20;96.80;;;;;;14717160;23;20031;-58
2021/08/05 12:45:00;;;;;;;2.75;2.05;;;24.50;96.20;;;;;;14748630;22;20060;-58
2021/08/05 12:50:49;;;;;;;2.53;2.15;;;24.70;95.70;;;;;;14708651;23;20487;-58
2021/08/05 12:56:43;;;;;;;1.65;1.55;;;24.80;95.30;;;;;;14715277;23;20490;-58
2021/08/05 13:02:30;;;;;;;2.67;1.75;;;24.80;94.40;;;;;;14693139;23;20036;-57
2021/08/05 13:08:32;;;;;;;3.20;1.60;;;25.00;92.40;;;;;;14684960;23;20490;-58
2021/08/05 13:14:30;;;;;;;2.17;1.50;;;25.10;91.90;;;;;;14724093;23;20028;-57
2021/08/05 13:20:21;;;;;;;2.78;1.70;;;25.40;89.70;;;;;;14722328;23;20565;-58
2021/08/05 13:26:32;;;;;;;1.70;1.60;;;25.50;86.90;;;;;;14685529;23;20033;-58
2021/08/05 13:32:20;;;;;;;4.20;1.58;;;25.60;83.70;;;;;;14683784;23;20565;-56
2021/08/05 13:38:07;;;;;;;2.25;1.65;;;25.50;81.90;;;;;;14707752;23;20099;-57
2021/08/05 13:43:56;;;;;;;3.38;1.55;;;25.50;80.50;;;;;;14639722;23;20476;-58
2021/08/05 13:49:43;;;;;;;3.00;2.05;;;25.50;81.10;;;;;;14702855;23;20044;-58
2021/08/05 13:55:32;;;;;;;3.30;1.85;;;25.90;80.80;;;;;;14736383;23;20473;-57
2021/08/05 14:01:22;;;;;;;3.22;1.98;;;26.20;80.50;;;;;;14717252;23;20031;-58
2021/08/05 14:07:10;;;;;;;5.07;2.00;;;26.30;79.70;;;;;;14719516;23;20346;-59
2021/08/05 14:12:57;;;;;;;3.40;1.75;;;26.00;80.80;;;;;;14747443;23;20016;-59
2021/08/05 14:18:45;;;;;;;2.30;1.80;;;25.70;81.10;;;;;;14741679;23;20036;-58
2021/08/05 14:24:32;;;;;;;2.38;2.17;;;25.40;80.50;;;;;;14713393;23;20021;-58
2021/08/05 14:30:19;;;;;;;2.20;2.00;;;24.90;82.90;;;;;;14712189;23;20513;-58
2021/08/05 14:36:07;;;;;;;2.65;2.13;;;24.50;85.60;;;;;;14714270;23;20039;-58
2021/08/05 14:41:54;;;;;;;2.35;1.73;;;24.30;87.70;;;;;;14747248;22;20093;-58
2021/08/05 14:47:41;;;;;;;2.63;2.20;;;24.20;88.10;;;;;;14750223;23;20061;-58
2021/08/05 14:53:30;;;;;;;3.63;2.35;;;24.10;89.80;;;;;;14717921;23;20030;-58
2021/08/05 14:59:17;;;;;;;3.95;2.40;;;24.30;90.30;;;;;;14729345;23;20035;-57
2021/08/05 15:05:05;;;;;;;5.90;2.70;;;24.40;90.60;;;;;;14680783;23;20371;-58
2021/08/05 15:11:03;;;;;;;3.72;2.40;;;24.10;91.50;;;;;;14683830;23;20080;-58
2021/08/05 15:16:51;;;;;;;2.90;2.35;;;23.50;92.70;;;;;;14697480;23;20603;-60
2021/08/05 15:22:38;;;;;;;4.88;2.63;;;23.20;94.50;;;;;;14696738;23;20111;-59
2021/08/05 15:28:26;;;;;;;5.72;2.45;;;23.00;95.20;;;;;;14683434;23;20021;-57
2021/08/05 15:34:13;;;;;;;4.65;2.40;;;23.00;95.40;;;;;;14694394;23;20509;-58
2021/08/05 15:40:01;;;;;;;8.25;2.40;;;23.00;96.40;;;;;;14717545;23;20021;-58
2021/08/05 15:45:49;;;;;;;3.50;2.28;;;23.70;96.90;;;;;;14685998;23;20498;-59
2021/08/05 15:51:36;;;;;;;4.05;2.25;;;24.80;95.70;;;;;;14686622;23;20025;-57
2021/08/05 15:57:23;;;;;;;6.07;2.47;;;25.60;93.80;;;;;;14710437;23;20486;-59
2021/08/05 16:03:11;;;;;;;3.13;2.03;;;25.20;93.10;;;;;;14717114;23;20096;-58
2021/08/05 16:08:58;;;;;;;3.50;2.08;;;24.20;94.10;;;;;;14715919;23;20104;-59
2021/08/05 16:14:45;;;;;;;5.75;2.40;;;23.90;94.80;;;;;;14753279;23;20080;-58
2021/08/05 16:20:33;;;;;;;3.40;1.98;;;23.60;95.30;;;;;;14715630;23;20433;-58
2021/08/05 16:26:20;;;;;;;2.90;2.00;;;23.50;95.30;;;;;;14715434;23;20031;-58
2021/08/05 16:32:08;;;;;;;3.00;1.92;;;23.40;95.90;;;;;;14712310;23;20062;-58
2021/08/05 16:37:58;;;;;;;3.63;1.90;;;23.30;96.20;;;;;;14765777;23;20375;-59
2021/08/05 16:43:44;;;;;;;3.83;2.38;;;23.20;96.30;;;;;;14714827;23;20017;-60
2021/08/05 16:49:31;;;;;;;7.75;2.80;;;23.30;97.60;;;;;;14713669;23;20119;-59
2021/08/05 16:55:20;;;;;;;3.50;2.50;;;23.20;97.90;;;;;;14699330;23;20024;-58
2021/08/05 17:01:07;;;;;;;4.40;2.47;;;23.20;98.30;;;;;;14738729;23;20027;-60
2021/08/05 17:06:54;;;;;;;5.03;2.00;;;23.20;98.40;;;;;;14714085;23;20017;-59
2021/08/05 17:12:42;;;;;;;3.05;1.70;;;23.30;98.10;;;;;;14714893;22;20091;-59
2021/08/05 17:18:29;;;;;;;5.72;4.10;;;23.20;98.90;;;;;;14731652;23;20037;-57
2021/08/05 17:24:16;;;;;;;4.28;1.70;;;23.10;99.40;;;;;;14750882;23;20375;-57
2021/08/05 17:30:04;;;;;;;1.85;1.60;;;23.10;99.60;;;;;;14713870;23;20039;-57
2021/08/05 17:35:51;;;;;;;2.90;1.83;;;23.20;99.90;;;;;;14713856;23;20099;-57
2021/08/05 17:41:38;;;;;;;2.15;1.90;;;23.30;99.90;;;;;;14696699;23;20035;-57
2021/08/05 17:47:26;;;;;;;3.13;2.05;;;23.10;99.90;;;;;;14750092;23;20052;-58
2021/08/05 17:53:13;;;;;;;7.82;2.30;;;22.90;99.90;;;;;;14677119;23;20028;-57
2021/08/05 17:59:01;;;;;;;3.47;2.42;;;22.70;99.90;;;;;;14684340;23;20024;-57
2021/08/05 18:04:49;;;;;;;4.80;2.03;;;22.80;99.90;;;;;;14702107;23;20035;-58
2021/08/05 18:10:36;;;;;;;4.60;2.10;;;23.00;99.90;;;;;;14717360;23;20095;-58
2021/08/05 18:16:24;;;;;;;4.22;2.10;;;23.00;99.90;;;;;;14717246;23;20099;-58
2021/08/05 18:22:12;;;;;;;8.32;4.40;;;22.90;99.90;;;;;;14714485;23;20399;-57
2021/08/05 18:27:59;;;;;;;3.72;2.00;;;22.60;99.90;;;;;;14711396;23;20546;-56
2021/08/05 18:33:46;;;;;;;4.28;2.10;;;22.60;99.90;;;;;;14715369;23;20096;-55
2021/08/05 18:39:35;;;;;;;2.15;1.75;;;22.60;99.90;;;;;;14716195;23;20025;-56
2021/08/05 18:45:22;;;;;;;5.13;2.10;;;22.60;99.90;;;;;;14716290;23;20589;-55
2021/08/05 18:51:10;;;;;;;3.03;2.10;;;22.50;99.90;;;;;;14705198;23;20358;-56
2021/08/05 18:56:58;;;;;;;3.33;1.88;;;22.50;99.90;;;;;;14687535;23;20438;-54
2021/08/05 19:02:45;;;;;;;4.40;2.50;;;22.50;99.90;;;;;;14705348;23;20356;-56
2021/08/05 19:08:32;;;;;;;3.95;2.15;;;22.50;99.90;;;;;;14717772;23;20020;-55
2021/08/05 19:14:20;;;;;;;5.85;2.70;;;22.50;99.90;;;;;;14716317;23;20413;-60
2021/08/05 19:20:10;;;;;;;7.47;2.50;;;22.50;99.90;;;;;;14716265;23;20039;-61
2021/08/05 19:25:58;;;;;;;4.25;2.55;;;22.30;99.90;;;;;;14717101;23;20451;-61
2021/08/05 19:31:46;;;;;;;7.57;3.00;;;22.20;99.90;;;;;;14716212;23;20088;-61
2021/08/05 19:37:33;;;;;;;3.72;2.58;;;22.10;99.90;;;;;;14715268;23;20120;-60
2021/08/05 19:43:20;;;;;;;3.60;2.90;;;22.00;99.90;;;;;;14716266;23;20100;-61
2021/08/05 19:49:10;;;;;;;4.80;2.50;;;21.90;99.90;;;;;;14716379;23;20101;-60
2021/08/05 19:54:57;;;;;;;4.20;2.72;;;21.80;99.90;;;;;;14707791;23;20073;-60
2021/08/05 20:00:44;;;;;;;2.85;2.22;;;21.80;99.90;;;;;;14715575;23;20035;-59
2021/08/05 20:06:32;;;;;;;4.47;2.63;;;21.80;99.90;;;;;;14715198;23;20363;-60
2021/08/05 20:12:19;;;;;;;4.47;2.50;;;21.80;99.90;;;;;;14715983;23;20021;-60
2021/08/05 20:18:06;;;;;;;4.95;2.60;;;22.00;99.90;;;;;;14715671;23;20036;-60
2021/08/05 20:24:01;;;;;;;5.53;2.42;;;21.90;99.90;;;;;;14715518;23;20047;-61
2021/08/05 20:29:48;;;;;;;7.22;1.70;;;21.90;99.90;;;;;;14715695;23;20068;-61
2021/08/05 20:35:35;;;;;;;2.70;1.70;;;21.90;99.90;;;;;;14718219;23;20023;-60
2021/08/05 20:41:24;;;;;;;2.35;1.20;;;21.80;99.90;;;;;;14718455;23;20445;-60
2021/08/05 20:47:11;;;;;;;5.65;1.30;;;21.60;99.90;;;;;;14719085;23;20021;-60
2021/08/05 20:52:58;;;;;;;2.50;1.40;;;21.60;99.90;;;;;;14699099;23;20017;-60
2021/08/05 20:58:47;;;;;;;1.58;1.25;;;21.80;99.90;;;;;;14692351;23;20039;-60
2021/08/05 21:10:35;;;;;;;4.75;1.73;;;21.90;99.90;;;;;;14717958;23;20017;-59
2021/08/05 21:16:23;;;;;;;2.42;1.50;;;21.90;99.90;;;;;;14720859;23;20092;-60
2021/08/05 21:22:10;;;;;;;5.50;1.80;;;21.90;99.90;;;;;;14721144;23;20100;-60
2021/08/05 21:27:57;;;;;;;116.30;79.93;;;21.90;99.90;;;;;;14720914;23;20031;-52
2021/08/05 21:33:45;;;;;;;5.75;2.30;;;21.90;99.90;;;;;;14719173;23;20100;-57
2021/08/05 21:39:32;;;;;;;10.13;2.15;;;21.80;99.90;;;;;;14718394;23;20140;-57
2021/08/05 21:45:19;;;;;;;7.03;1.95;;;21.60;99.90;;;;;;14717859;23;20493;-57
2021/08/05 21:51:07;;;;;;;8.50;2.17;;;21.70;99.90;;;;;;14706795;23;20386;-55
2021/08/05 21:56:54;;;;;;;9.88;2.30;;;21.70;99.90;;;;;;14698087;23;20021;-58
2021/08/05 22:02:49;;;;;;;8.75;2.50;;;21.60;99.90;;;;;;14716808;23;20354;-57
2021/08/05 22:08:37;;;;;;;10.50;2.58;;;21.60;99.90;;;;;;14716733;23;20017;-57
2021/08/05 22:14:24;;;;;;;17.88;2.83;;;21.40;99.90;;;;;;14717777;23;20429;-57
2021/08/05 22:20:12;;;;;;;10.90;2.22;;;21.40;99.90;;;;;;14716974;23;20039;-55
2021/08/05 22:26:00;;;;;;;11.00;2.50;;;21.30;99.90;;;;;;14717556;23;20025;-56
2021/08/05 22:31:47;;;;;;;9.93;2.67;;;21.30;99.90;;;;;;14716801;23;20052;-57
2021/08/05 22:37:34;;;;;;;12.02;3.20;;;21.30;99.90;;;;;;14717697;23;20031;-56
2021/08/05 22:43:25;;;;;;;7.88;2.55;;;21.40;99.90;;;;;;14715945;23;20414;-57
2021/08/05 22:49:12;;;;;;;9.27;2.80;;;21.30;99.90;;;;;;14716729;23;20462;-59
2021/08/05 22:54:59;;;;;;;12.25;2.95;;;21.30;99.90;;;;;;14688356;23;20017;-58
2021/08/05 23:00:50;;;;;;;11.52;3.42;;;21.30;99.90;;;;;;14700650;23;20058;-56
2021/08/05 23:06:37;;;;;;;10.93;2.80;;;21.30;99.90;;;;;;14717528;23;20020;-55
2021/08/05 23:19:06;;;;;;;11.50;3.20;;;21.20;99.90;;;;;;14690528;23;20021;-79
